createdAt,value
2022-10-12T00:00:52.699Z,24.00
2022-10-12T00:03:21.308Z,24.10
2022-10-12T00:05:52.577Z,24.10
2022-10-12T00:08:21.062Z,24.20
2022-10-12T00:10:49.597Z,24.20
2022-10-12T00:13:18.081Z,24.20
2022-10-12T00:15:46.871Z,24.20
2022-10-12T00:18:15.369Z,24.30
2022-10-12T00:20:43.879Z,24.30
2022-10-12T00:23:12.509Z,24.30
2022-10-12T00:25:41.831Z,24.30
2022-10-12T00:28:10.430Z,24.30
2022-10-12T00:30:41.376Z,24.40
2022-10-12T00:33:09.886Z,24.40
2022-10-12T00:35:38.377Z,24.40
2022-10-12T00:38:09.498Z,24.50
2022-10-12T00:40:37.964Z,24.50
2022-10-12T00:43:06.473Z,24.60
2022-10-12T00:45:35.011Z,24.60
2022-10-12T00:48:03.581Z,24.70
2022-10-12T00:50:34.059Z,24.70
2022-10-12T00:53:15.406Z,24.70
2022-10-12T00:55:53.832Z,24.70
2022-10-12T00:58:24.393Z,24.80
2022-10-12T01:00:53.099Z,24.80
2022-10-12T01:03:24.479Z,24.90
2022-10-12T01:05:53.065Z,24.90
2022-10-12T01:08:21.946Z,25.00
2022-10-12T01:10:50.479Z,25.00
2022-10-12T01:13:19.529Z,25.10
2022-10-12T01:15:55.086Z,25.10
2022-10-12T01:18:28.090Z,25.20
2022-10-12T01:20:59.580Z,25.20
2022-10-12T01:23:33.947Z,25.20
2022-10-12T01:26:05.301Z,25.30
2022-10-12T01:28:33.839Z,25.40
2022-10-12T01:31:06.384Z,25.40
2022-10-12T01:33:40.394Z,25.40
2022-10-12T01:36:13.781Z,25.50
2022-10-12T01:38:56.281Z,25.50
2022-10-12T01:41:38.302Z,25.60
2022-10-12T01:44:07.017Z,25.70
2022-10-12T01:46:35.523Z,25.80
2022-10-12T01:49:04.171Z,25.80
2022-10-12T01:51:35.651Z,25.90
2022-10-12T01:54:13.289Z,25.90
2022-10-12T01:56:45.169Z,26.00
2022-10-12T01:59:28.147Z,26.00
2022-10-12T02:02:05.281Z,26.20
2022-10-12T02:04:44.643Z,26.20
2022-10-12T02:07:16.190Z,26.30
2022-10-12T02:09:45.251Z,26.40
2022-10-12T02:12:20.248Z,26.40
2022-10-12T02:14:51.846Z,26.50
2022-10-12T02:17:22.263Z,26.50
2022-10-12T02:19:55.652Z,26.60
2022-10-12T02:22:26.782Z,26.50
2022-10-12T02:24:58.699Z,26.50
2022-10-12T02:27:28.017Z,26.60
2022-10-12T02:29:56.993Z,26.60
2022-10-12T02:32:30.717Z,26.50
2022-10-12T02:35:10.632Z,26.50
2022-10-12T02:37:41.964Z,26.50
2022-10-12T02:40:29.004Z,26.60
2022-10-12T02:43:10.251Z,26.60
2022-10-12T02:45:41.447Z,26.70
2022-10-12T02:48:11.234Z,26.80
2022-10-12T02:50:39.918Z,26.90
2022-10-12T02:53:09.005Z,26.90
2022-10-12T02:55:40.994Z,27.00
2022-10-12T02:58:09.485Z,27.00
2022-10-12T03:00:38.154Z,27.00
2022-10-12T03:03:06.692Z,27.00
2022-10-12T03:05:35.266Z,27.00
2022-10-12T03:08:03.811Z,27.10
2022-10-12T03:10:32.383Z,27.10
2022-10-12T03:13:00.869Z,27.10
2022-10-12T03:15:29.420Z,27.10
2022-10-12T03:17:57.944Z,27.20
2022-10-12T03:20:26.616Z,27.20
2022-10-12T03:22:55.111Z,27.20
2022-10-12T03:25:23.981Z,27.20
2022-10-12T03:27:52.468Z,27.30
2022-10-12T03:30:21.025Z,27.40
2022-10-12T03:32:49.734Z,27.40
2022-10-12T03:35:18.828Z,27.40
2022-10-12T03:37:47.344Z,27.40
2022-10-12T03:40:16.075Z,27.40
2022-10-12T03:42:44.551Z,27.40
2022-10-12T03:45:13.562Z,27.40
2022-10-12T03:47:42.171Z,27.40
2022-10-12T03:50:10.911Z,27.40
2022-10-12T03:52:39.429Z,27.40
2022-10-12T03:55:08.780Z,27.40
2022-10-12T03:57:37.463Z,27.40
2022-10-12T04:00:06.421Z,27.40
2022-10-12T04:02:34.959Z,27.40
2022-10-12T04:05:04.523Z,27.40
2022-10-12T04:07:32.992Z,27.50
2022-10-12T04:10:01.503Z,27.50
2022-10-12T04:12:29.975Z,27.60
2022-10-12T04:14:58.469Z,27.60
2022-10-12T04:17:27.012Z,27.70
2022-10-12T04:19:55.489Z,27.80
2022-10-12T04:22:25.836Z,27.80
2022-10-12T04:24:54.598Z,27.80
2022-10-12T04:27:23.104Z,27.90
2022-10-12T04:29:51.638Z,27.90
2022-10-12T04:32:20.507Z,27.90
2022-10-12T04:34:49.055Z,27.90
2022-10-12T04:37:17.524Z,28.00
2022-10-12T04:39:46.071Z,27.90
2022-10-12T04:42:14.531Z,28.00
2022-10-12T04:44:42.976Z,28.00
2022-10-12T04:47:11.544Z,28.00
2022-10-12T04:49:40.037Z,28.10
2022-10-12T04:52:08.550Z,28.10
2022-10-12T04:54:37.216Z,28.10
2022-10-12T04:57:05.747Z,28.10
2022-10-12T04:59:34.224Z,28.20
2022-10-12T05:02:02.782Z,28.20
2022-10-12T05:04:31.303Z,28.30
2022-10-12T05:06:59.856Z,28.30
2022-10-12T05:09:28.460Z,28.40
2022-10-12T05:11:56.947Z,28.40
2022-10-12T05:14:25.532Z,28.50
2022-10-12T05:16:54.108Z,28.50
2022-10-12T05:19:22.903Z,28.50
2022-10-12T05:21:51.471Z,28.60
2022-10-12T05:24:19.998Z,28.50
2022-10-12T05:26:48.460Z,28.60
2022-10-12T05:29:16.979Z,28.60
2022-10-12T05:31:45.490Z,28.60
2022-10-12T05:34:13.997Z,28.60
2022-10-12T05:36:43.647Z,28.60
2022-10-12T05:39:12.408Z,28.60
2022-10-12T05:41:40.899Z,28.60
2022-10-12T05:44:09.460Z,28.70
2022-10-12T05:46:37.968Z,28.70
2022-10-12T05:49:06.688Z,28.70
2022-10-12T05:51:35.177Z,28.70
2022-10-12T05:54:03.800Z,28.70
2022-10-12T05:56:32.502Z,28.70
2022-10-12T05:59:00.967Z,28.70
2022-10-12T06:01:29.529Z,28.70
2022-10-12T06:03:58.049Z,28.80
2022-10-12T06:06:26.645Z,28.70
2022-10-12T06:08:55.121Z,28.80
2022-10-12T06:11:23.620Z,28.80
2022-10-12T06:13:52.232Z,28.80
2022-10-12T06:16:20.774Z,28.80
2022-10-12T06:18:49.263Z,28.90
2022-10-12T06:21:34.243Z,28.90
2022-10-12T06:24:03.535Z,28.90
2022-10-12T06:26:32.026Z,28.90
2022-10-12T06:29:01.831Z,28.90
2022-10-12T06:31:30.564Z,28.90
2022-10-12T06:33:59.065Z,28.90
2022-10-12T06:36:27.620Z,29.00
2022-10-12T06:38:56.620Z,29.00
2022-10-12T06:41:25.103Z,28.90
2022-10-12T06:43:53.748Z,28.90
2022-10-12T06:46:22.473Z,28.90
2022-10-12T06:48:51.019Z,28.90
2022-10-12T06:51:19.942Z,28.90
2022-10-12T06:53:48.475Z,28.90
2022-10-12T06:56:16.938Z,28.90
2022-10-12T06:58:45.427Z,28.90
2022-10-12T07:01:14.183Z,29.00
2022-10-12T07:03:42.715Z,29.00
2022-10-12T07:06:12.674Z,29.00
2022-10-12T07:08:42.399Z,29.00
2022-10-12T07:11:12.201Z,29.00
2022-10-12T07:13:40.734Z,29.00
2022-10-12T07:16:09.423Z,29.00
2022-10-12T07:18:38.023Z,29.00
2022-10-12T07:21:06.545Z,29.00
2022-10-12T07:23:35.805Z,29.00
2022-10-12T07:26:04.306Z,29.00
2022-10-12T07:28:32.862Z,29.00
2022-10-12T07:31:07.048Z,29.00
2022-10-12T07:33:35.955Z,28.90
2022-10-12T07:36:21.939Z,29.00
2022-10-12T07:38:51.228Z,28.90
2022-10-12T07:41:20.229Z,29.00
2022-10-12T07:43:48.700Z,29.00
2022-10-12T07:46:17.279Z,29.00
2022-10-12T07:48:50.050Z,29.00
2022-10-12T07:51:19.345Z,29.00
2022-10-12T07:53:48.689Z,29.00
2022-10-12T07:56:17.280Z,29.00
2022-10-12T07:58:53.002Z,29.00
2022-10-12T08:01:22.288Z,29.00
2022-10-12T08:03:50.983Z,29.00
2022-10-12T08:06:20.872Z,29.00
2022-10-12T08:08:49.661Z,29.00
2022-10-12T08:11:18.281Z,29.00
2022-10-12T08:13:46.846Z,29.00
2022-10-12T08:16:16.601Z,29.00
2022-10-12T08:18:45.654Z,29.00
2022-10-12T08:21:15.352Z,29.00
2022-10-12T08:23:47.015Z,29.00
2022-10-12T08:26:17.000Z,29.00
2022-10-12T08:28:46.073Z,28.90
2022-10-12T08:31:15.764Z,28.90
2022-10-12T08:33:44.335Z,28.90
2022-10-12T08:36:13.254Z,28.90
2022-10-12T08:38:41.830Z,28.90
2022-10-12T08:41:22.830Z,28.90
2022-10-12T08:43:54.113Z,28.90
2022-10-12T08:46:23.931Z,28.90
2022-10-12T08:49:03.071Z,28.90
2022-10-12T08:51:33.280Z,28.90
2022-10-12T08:54:08.959Z,28.90
2022-10-12T08:56:37.757Z,28.90
2022-10-12T08:59:06.659Z,28.80
2022-10-12T09:01:39.531Z,28.80
2022-10-12T09:04:11.259Z,28.80
2022-10-12T09:06:39.827Z,28.80
2022-10-12T09:09:11.356Z,28.80
2022-10-12T09:11:51.858Z,28.80
2022-10-12T09:14:27.603Z,28.80
2022-10-12T09:16:57.079Z,28.80
2022-10-12T09:19:36.374Z,28.80
2022-10-12T09:22:06.719Z,28.80
2022-10-12T09:24:37.298Z,28.80
2022-10-12T09:27:17.313Z,28.80
2022-10-12T09:29:49.975Z,28.70
2022-10-12T09:32:24.424Z,28.70
2022-10-12T09:34:52.967Z,28.70
2022-10-12T09:37:25.027Z,28.70
2022-10-12T09:39:53.718Z,28.70
2022-10-12T09:42:22.403Z,28.70
2022-10-12T09:44:52.862Z,28.60
2022-10-12T09:47:28.150Z,28.60
2022-10-12T09:49:59.531Z,28.60
2022-10-12T09:52:37.071Z,28.60
2022-10-12T09:55:24.792Z,28.60
2022-10-12T09:57:58.285Z,28.60
2022-10-12T10:00:27.011Z,28.60
2022-10-12T10:02:55.901Z,28.50
2022-10-12T10:05:26.624Z,28.50
2022-10-12T10:08:13.838Z,28.50
2022-10-12T10:10:56.592Z,28.50
2022-10-12T10:13:29.703Z,28.40
2022-10-12T10:16:06.064Z,28.40
2022-10-12T10:18:34.649Z,28.40
2022-10-12T10:21:05.384Z,28.40
2022-10-12T10:23:37.785Z,28.40
2022-10-12T10:26:08.136Z,28.40
2022-10-12T10:28:38.462Z,28.30
2022-10-12T10:31:08.333Z,28.40
2022-10-12T10:33:37.411Z,28.30
2022-10-12T10:36:25.751Z,28.30
2022-10-12T10:39:06.333Z,28.30
2022-10-12T10:41:38.129Z,28.20
2022-10-12T10:44:07.979Z,28.20
2022-10-12T10:46:37.709Z,28.20
2022-10-12T10:49:08.323Z,28.20
2022-10-12T10:51:54.133Z,28.10
2022-10-12T10:54:25.779Z,28.10
2022-10-12T10:56:59.252Z,28.10
2022-10-12T10:59:46.425Z,28.00
2022-10-12T11:02:31.988Z,28.00
2022-10-12T11:05:06.326Z,27.90
2022-10-12T11:07:37.974Z,27.90
2022-10-12T11:10:10.419Z,27.90
2022-10-12T11:12:42.069Z,27.90
2022-10-12T11:15:22.532Z,27.80
2022-10-12T11:17:53.537Z,27.80
2022-10-12T11:20:40.172Z,27.80
2022-10-12T11:23:18.758Z,27.80
2022-10-12T11:25:56.332Z,27.70
2022-10-12T11:28:27.406Z,27.70
2022-10-12T11:30:56.055Z,27.60
2022-10-12T11:33:27.863Z,27.60
2022-10-12T11:36:03.127Z,27.50
2022-10-12T11:38:44.542Z,27.40
2022-10-12T11:44:09.087Z,27.40
2022-10-12T11:46:40.564Z,27.40
2022-10-12T11:49:09.087Z,27.40
2022-10-12T11:51:37.621Z,27.40
2022-10-12T11:54:13.174Z,27.40
2022-10-12T11:56:44.384Z,27.50
2022-10-12T11:59:24.061Z,27.50
2022-10-12T12:02:10.650Z,27.50
2022-10-12T12:04:43.898Z,27.50
2022-10-12T12:07:32.802Z,27.50
2022-10-12T12:10:01.327Z,27.50
2022-10-12T12:12:30.651Z,27.50
2022-10-12T12:15:03.662Z,27.50
2022-10-12T12:17:35.480Z,27.40
2022-10-12T12:20:23.778Z,27.40
2022-10-12T12:22:54.296Z,27.30
2022-10-12T12:25:33.784Z,27.20
2022-10-12T12:28:22.507Z,27.20
2022-10-12T12:30:59.295Z,27.20
2022-10-12T12:33:33.544Z,27.10
2022-10-12T12:36:03.688Z,27.10
2022-10-12T12:38:33.958Z,27.10
2022-10-12T12:41:02.489Z,27.10
2022-10-12T12:43:30.997Z,27.10
2022-10-12T12:46:03.905Z,27.10
2022-10-12T12:48:41.993Z,27.10
2022-10-12T12:51:12.565Z,27.10
2022-10-12T12:53:54.033Z,27.10
2022-10-12T12:56:28.367Z,27.10
2022-10-12T12:59:03.698Z,27.10
2022-10-12T13:01:35.427Z,27.10
2022-10-12T13:04:16.335Z,27.10
2022-10-12T13:06:44.862Z,27.00
2022-10-12T13:09:16.151Z,27.00
2022-10-12T13:11:53.567Z,27.00
2022-10-12T13:14:44.120Z,27.00
2022-10-12T13:17:33.856Z,27.00
2022-10-12T13:20:08.706Z,27.00
2022-10-12T13:22:37.388Z,27.00
2022-10-12T13:25:08.246Z,27.00
2022-10-12T13:27:47.074Z,27.00
2022-10-12T13:30:30.012Z,27.00
2022-10-12T13:33:03.733Z,26.90
2022-10-12T13:35:36.764Z,26.90
2022-10-12T13:38:07.094Z,26.90
2022-10-12T13:40:35.573Z,26.90
2022-10-12T13:43:21.830Z,26.90
2022-10-12T13:45:50.954Z,26.90
2022-10-12T13:48:46.548Z,26.90
2022-10-12T13:51:26.891Z,26.90
2022-10-12T13:53:55.654Z,26.90
2022-10-12T13:56:29.327Z,26.90
2022-10-12T13:59:05.531Z,26.90
2022-10-12T14:01:48.623Z,26.90
2022-10-12T14:04:17.361Z,26.90
2022-10-12T14:06:48.844Z,26.90
2022-10-12T14:09:19.847Z,26.90
2022-10-12T14:11:49.045Z,26.80
2022-10-12T14:14:29.853Z,26.80
2022-10-12T14:16:58.415Z,26.80
2022-10-12T14:19:35.760Z,26.80
2022-10-12T14:22:04.732Z,26.80
2022-10-12T14:24:34.052Z,26.80
2022-10-12T14:27:03.580Z,26.80
2022-10-12T14:29:42.526Z,26.80
2022-10-12T14:32:14.212Z,26.70
2022-10-12T14:34:42.751Z,26.70
2022-10-12T14:37:11.276Z,26.70
2022-10-12T14:39:39.845Z,26.70
2022-10-12T14:42:23.750Z,26.70
2022-10-12T14:44:52.426Z,26.70
2022-10-12T14:47:20.903Z,26.70
2022-10-12T14:49:50.547Z,26.60
2022-10-12T14:52:21.756Z,26.60
2022-10-12T14:54:57.727Z,26.60
2022-10-12T14:57:27.175Z,26.60
2022-10-12T14:59:55.667Z,26.50
2022-10-12T15:02:25.801Z,26.50
2022-10-12T15:04:55.342Z,26.50
2022-10-12T15:07:34.002Z,26.50
2022-10-12T15:10:02.671Z,26.50
2022-10-12T15:12:36.205Z,26.40
2022-10-12T15:15:16.391Z,26.40
2022-10-12T15:17:44.876Z,26.40
2022-10-12T15:20:13.436Z,26.40
2022-10-12T15:22:41.973Z,26.40
2022-10-12T15:25:18.163Z,26.40
2022-10-12T15:27:46.944Z,26.30
2022-10-12T15:30:15.833Z,26.40
2022-10-12T15:32:44.600Z,26.40
2022-10-12T15:35:26.960Z,26.30
2022-10-12T15:37:57.496Z,26.30
2022-10-12T15:40:26.347Z,26.30
2022-10-12T15:42:54.930Z,26.30
2022-10-12T15:45:34.040Z,26.30
2022-10-12T15:48:02.858Z,26.30
2022-10-12T15:50:36.409Z,26.30
2022-10-12T15:53:05.287Z,26.20
2022-10-12T15:55:33.840Z,26.20
2022-10-12T15:58:02.368Z,26.20
2022-10-12T16:00:33.834Z,26.20
2022-10-12T16:03:02.896Z,26.10
2022-10-12T16:05:38.211Z,26.10
2022-10-12T16:08:07.147Z,26.10
2022-10-12T16:10:38.818Z,26.10
2022-10-12T16:13:08.331Z,26.00
2022-10-12T16:15:37.478Z,26.00
2022-10-12T16:18:06.838Z,26.00
2022-10-12T16:20:38.250Z,26.00
2022-10-12T16:23:08.652Z,26.00
2022-10-12T16:25:37.411Z,25.90
2022-10-12T16:28:05.939Z,25.90
2022-10-12T16:30:34.499Z,25.90
2022-10-12T16:33:03.052Z,25.90
2022-10-12T16:35:31.565Z,25.90
2022-10-12T16:38:00.307Z,25.80
2022-10-12T16:40:28.820Z,25.80
2022-10-12T16:42:57.449Z,25.80
2022-10-12T16:45:26.812Z,25.80
2022-10-12T16:47:55.392Z,25.80
2022-10-12T16:50:24.865Z,25.80
2022-10-12T16:52:53.791Z,25.70
2022-10-12T16:55:22.601Z,25.70
2022-10-12T16:57:51.079Z,25.70
2022-10-12T17:00:20.581Z,25.70
2022-10-12T17:02:51.177Z,25.60
2022-10-12T17:05:20.684Z,25.60
2022-10-12T17:07:49.166Z,25.60
2022-10-12T17:10:17.726Z,25.50
2022-10-12T17:12:47.021Z,25.50
2022-10-12T17:15:15.521Z,25.50
2022-10-12T17:17:43.986Z,25.50
2022-10-12T17:20:12.719Z,25.50
2022-10-12T17:22:41.200Z,25.50
2022-10-12T17:25:10.487Z,25.50
2022-10-12T17:27:39.464Z,25.50
2022-10-12T17:30:08.288Z,25.40
2022-10-12T17:32:38.956Z,25.40
2022-10-12T17:35:07.703Z,25.40
2022-10-12T17:37:36.232Z,25.30
2022-10-12T17:40:05.331Z,25.30
2022-10-12T17:42:33.872Z,25.20
2022-10-12T17:45:02.393Z,25.20
2022-10-12T17:47:30.982Z,25.20
2022-10-12T17:49:59.507Z,25.10
2022-10-12T17:52:28.024Z,25.20
2022-10-12T17:54:56.659Z,25.10
2022-10-12T17:57:25.186Z,25.00
2022-10-12T17:59:53.635Z,25.00
2022-10-12T18:02:22.385Z,25.00
2022-10-12T18:04:50.970Z,24.90
2022-10-12T18:07:19.847Z,24.90
2022-10-12T18:09:48.746Z,24.90
2022-10-12T18:12:17.553Z,24.90
2022-10-12T18:14:46.300Z,24.90
2022-10-12T18:17:15.225Z,24.90
2022-10-12T18:19:43.795Z,24.90
2022-10-12T18:22:12.272Z,24.90
2022-10-12T18:24:41.450Z,24.90
2022-10-12T18:27:09.975Z,24.90
2022-10-12T18:29:38.464Z,24.80
2022-10-12T18:32:07.874Z,24.80
2022-10-12T18:34:36.966Z,24.80
2022-10-12T18:37:06.017Z,24.80
2022-10-12T18:39:34.814Z,24.80
2022-10-12T18:42:03.363Z,24.70
2022-10-12T18:44:31.858Z,24.80
2022-10-12T18:47:00.457Z,24.70
2022-10-12T18:49:29.264Z,24.80
2022-10-12T18:51:57.748Z,24.80
2022-10-12T18:54:26.292Z,24.80
2022-10-12T18:56:54.899Z,24.70
2022-10-12T18:59:23.454Z,24.70
2022-10-12T19:01:51.967Z,24.70
2022-10-12T19:04:22.378Z,24.70
2022-10-12T19:06:54.322Z,24.70
2022-10-12T19:09:25.496Z,24.60
2022-10-12T19:11:53.958Z,24.60
2022-10-12T19:14:22.436Z,24.50
2022-10-12T19:16:51.694Z,24.40
2022-10-12T19:19:21.629Z,24.40
2022-10-12T19:21:52.779Z,24.40
2022-10-12T19:24:22.272Z,24.30
2022-10-12T19:26:51.143Z,24.30
2022-10-12T19:29:19.646Z,24.20
2022-10-12T19:31:49.193Z,24.20
2022-10-12T19:34:19.411Z,24.20
2022-10-12T19:36:47.913Z,24.10
2022-10-12T19:39:18.067Z,24.10
2022-10-12T19:41:47.007Z,24.00
2022-10-12T19:44:15.982Z,24.00
2022-10-12T19:46:48.306Z,24.00
2022-10-12T19:49:18.320Z,24.00
2022-10-12T19:51:47.154Z,23.90
2022-10-12T19:54:16.652Z,23.90
2022-10-12T19:56:45.115Z,23.90
2022-10-12T19:59:13.737Z,23.90
2022-10-12T20:01:42.335Z,24.00
2022-10-12T20:04:12.924Z,23.90
2022-10-12T20:06:42.011Z,23.90
2022-10-12T20:09:11.243Z,23.90
2022-10-12T20:11:39.781Z,23.90
2022-10-12T20:14:08.634Z,23.90
2022-10-12T20:16:39.502Z,23.90
2022-10-12T20:19:08.195Z,23.90
2022-10-12T20:21:37.716Z,23.90
2022-10-12T20:24:07.834Z,24.00
2022-10-12T20:26:36.309Z,24.00
2022-10-12T20:29:05.162Z,24.00
2022-10-12T20:31:33.770Z,24.00
2022-10-12T20:34:02.241Z,24.00
2022-10-12T20:36:31.819Z,24.00
2022-10-12T20:39:00.496Z,24.00
2022-10-12T20:41:29.408Z,24.00
2022-10-12T20:43:58.739Z,24.00
2022-10-12T20:46:27.843Z,24.00
2022-10-12T20:49:00.347Z,24.00
2022-10-12T20:51:30.381Z,24.00
2022-10-12T20:54:01.492Z,24.00
2022-10-12T20:56:30.869Z,23.90
2022-10-12T20:58:59.522Z,23.90
2022-10-12T21:01:29.447Z,23.90
2022-10-12T21:03:58.333Z,23.90
2022-10-12T21:06:27.085Z,23.90
2022-10-12T21:08:56.800Z,23.90
2022-10-12T21:11:25.645Z,23.90
2022-10-12T21:13:54.174Z,23.90
2022-10-12T21:16:22.806Z,23.80
2022-10-12T21:18:54.248Z,23.80
2022-10-12T21:21:22.845Z,23.80
2022-10-12T21:23:58.728Z,23.70
2022-10-12T21:26:28.507Z,23.70
2022-10-12T21:28:57.159Z,23.70
2022-10-12T21:31:31.003Z,23.70
2022-10-12T21:34:02.986Z,23.70
2022-10-12T21:36:31.903Z,23.80
2022-10-12T21:39:00.487Z,23.80
2022-10-12T21:41:29.765Z,23.80
2022-10-12T21:43:58.831Z,23.80
2022-10-12T21:46:28.987Z,23.80
2022-10-12T21:48:57.545Z,23.80
2022-10-12T21:51:26.536Z,23.80
2022-10-12T21:53:55.087Z,23.80
2022-10-12T21:56:24.544Z,23.80
2022-10-12T21:58:54.004Z,23.80
2022-10-12T22:01:23.619Z,23.80
2022-10-12T22:03:56.394Z,23.80
2022-10-12T22:06:26.080Z,23.80
2022-10-12T22:08:55.834Z,23.80
2022-10-12T22:11:24.558Z,23.80
2022-10-12T22:13:53.268Z,23.80
2022-10-12T22:16:30.299Z,23.70
2022-10-12T22:19:02.249Z,23.70
2022-10-12T22:21:31.461Z,23.70
2022-10-12T22:24:01.507Z,23.80
2022-10-12T22:26:30.400Z,23.80
2022-10-12T22:28:59.162Z,23.80
2022-10-12T22:31:27.742Z,23.80
2022-10-12T22:33:56.499Z,23.80
2022-10-12T22:36:25.314Z,23.80
2022-10-12T22:38:56.398Z,23.80
2022-10-12T22:41:25.259Z,23.70
2022-10-12T22:43:55.418Z,23.70
2022-10-12T22:46:25.007Z,23.70
2022-10-12T22:48:53.984Z,23.80
2022-10-12T22:51:27.987Z,23.70
2022-10-12T22:53:56.463Z,23.80
2022-10-12T22:56:24.971Z,23.90
2022-10-12T22:58:59.633Z,23.90
2022-10-12T23:01:28.819Z,24.00
2022-10-12T23:03:57.715Z,24.00
2022-10-12T23:06:26.741Z,24.00
2022-10-12T23:08:55.262Z,24.00
2022-10-12T23:11:25.941Z,24.00
2022-10-12T23:13:55.495Z,24.00
2022-10-12T23:16:25.415Z,24.00
2022-10-12T23:18:59.562Z,23.90
2022-10-12T23:21:28.938Z,23.90
2022-10-12T23:23:57.686Z,23.90
2022-10-12T23:26:27.005Z,23.80
2022-10-12T23:28:55.553Z,23.80
2022-10-12T23:31:25.836Z,23.80
2022-10-12T23:34:01.409Z,23.70
2022-10-12T23:36:30.342Z,23.70
2022-10-12T23:39:01.121Z,23.70
2022-10-12T23:41:29.754Z,23.70
2022-10-12T23:43:58.251Z,23.60
2022-10-12T23:46:26.729Z,23.70
2022-10-12T23:48:55.283Z,23.70
2022-10-12T23:51:30.160Z,23.70
2022-10-12T23:53:58.787Z,23.70
2022-10-12T23:56:27.247Z,23.70
2022-10-12T23:58:55.825Z,23.70
